Time;durP1;ratioP1;P1;durP2;ratioP2;P2;SDS_P1;SDS_P2;PMS_P1;PMS_P2;Temp;Humidity;BMP_temperature;BMP_pressure;BME280_temperature;BME280_humidity;BME280_pressure;Samples;Min_cycle;Max_cycle;Signal;HPM_P1;HPM_P2
2021/04/10 00:01:09;;;;;;;12.00;5.85;;;;;;;4.88;39.97;96020.59;5077117;28;20597;-68
2021/04/10 00:03:35;;;;;;;13.85;6.90;;;;;;;5.06;40.40;96020.88;5090038;28;20258;-69
2021/04/10 00:06:02;;;;;;;12.93;7.20;;;;;;;5.14;41.18;96012.91;5076938;28;20286;-67
2021/04/10 00:08:29;;;;;;;13.50;7.10;;;;;;;5.09;41.33;96015.28;5089610;28;20203;-70
2021/04/10 00:10:55;;;;;;;12.57;6.53;;;;;;;5.10;41.00;96019.50;5076402;28;20740;-69
2021/04/10 00:13:22;;;;;;;12.20;6.55;;;;;;;5.14;40.36;96018.13;5083951;28;20227;-71
2021/04/10 00:15:49;;;;;;;8.90;5.68;;;;;;;5.12;40.67;96020.09;5074577;28;20291;-69
2021/04/10 00:18:16;;;;;;;9.73;5.53;;;;;;;5.18;40.09;96022.91;5049414;28;20578;-69
2021/04/10 00:20:43;;;;;;;8.40;5.00;;;;;;;5.28;39.84;96021.53;5069610;28;20291;-68
2021/04/10 00:23:09;;;;;;;7.60;5.20;;;;;;;5.25;39.80;96013.34;5088750;28;20198;-68
2021/04/10 00:25:35;;;;;;;12.68;5.68;;;;;;;5.26;39.72;96007.94;5078863;28;20191;-68
2021/04/10 00:28:02;;;;;;;9.50;5.45;;;;;;;5.13;39.75;96016.50;5090648;28;20202;-68
2021/04/10 00:30:28;;;;;;;15.30;6.88;;;;;;;5.23;39.58;95999.72;5083334;28;20246;-70
2021/04/10 00:32:55;;;;;;;13.82;7.00;;;;;;;5.27;39.66;96006.16;5089144;28;20219;-68
2021/04/10 00:35:21;;;;;;;15.55;8.02;;;;;;;5.34;39.85;96001.78;5083883;28;20207;-68
2021/04/10 00:37:47;;;;;;;22.52;9.20;;;;;;;5.12;40.38;96006.31;5089695;28;20645;-70
2021/04/10 00:40:14;;;;;;;18.80;9.50;;;;;;;5.11;40.67;96000.28;5084895;28;20206;-70
2021/04/10 00:42:41;;;;;;;16.17;9.60;;;;;;;5.22;40.60;95993.72;5088733;28;20207;-70
2021/04/10 00:45:09;;;;;;;21.10;9.63;;;;;;;4.69;41.57;95992.72;5085479;28;20210;-70
2021/04/10 00:47:35;;;;;;;23.10;11.10;;;;;;;4.85;41.98;96002.00;5087818;28;20203;-71
2021/04/10 00:50:04;;;;;;;23.83;10.93;;;;;;;4.92;41.58;95998.44;5086858;28;20290;-69
2021/04/10 00:52:30;;;;;;;21.42;11.85;;;;;;;5.15;41.77;96005.91;5085143;28;20339;-70
2021/04/10 00:54:57;;;;;;;20.08;10.55;;;;;;;5.13;41.39;96000.91;5086888;28;20217;-69
2021/04/10 00:57:24;;;;;;;21.33;10.80;;;;;;;5.01;42.45;96002.47;5084389;28;20199;-68
2021/04/10 00:59:51;;;;;;;21.58;10.32;;;;;;;4.87;43.30;95998.19;5088444;28;20260;-70
2021/04/10 01:02:17;;;;;;;21.65;9.98;;;;;;;4.94;42.86;96001.66;5084484;28;20195;-69
2021/04/10 01:04:44;;;;;;;14.73;8.40;;;;;;;4.88;43.04;95996.41;5089465;28;20252;-67
2021/04/10 01:07:10;;;;;;;18.65;9.02;;;;;;;4.78;43.03;95995.97;5083180;28;20207;-70
2021/04/10 01:09:37;;;;;;;18.02;8.95;;;;;;;4.82;43.07;96003.16;5088983;28;20237;-68
2021/04/10 01:12:26;;;;;;;15.88;9.52;;;;;;;4.81;43.48;95991.19;5083054;28;20223;-70
2021/04/10 01:15:02;;;;;;;25.63;12.60;;;;;;;4.63;43.64;96009.09;5087338;28;20671;-70
2021/04/10 01:17:32;;;;;;;26.00;14.18;;;;;;;4.66;43.89;96010.47;5086384;28;20209;-68
2021/04/10 01:20:30;;;;;;;34.47;15.90;;;;;;;4.60;44.14;96004.25;5086260;28;20282;-67
2021/04/10 01:23:12;;;;;;;37.83;17.40;;;;;;;4.60;43.64;96004.25;5089672;28;20390;-70
2021/04/10 01:25:50;;;;;;;31.15;16.40;;;;;;;4.55;44.17;96011.81;5081256;28;20215;-68
2021/04/10 01:28:26;;;;;;;31.35;16.27;;;;;;;4.27;44.33;96013.63;5052301;28;20627;-69
2021/04/10 01:30:54;;;;;;;33.70;15.20;;;;;;;4.46;44.29;95997.38;5075281;28;20202;-69
2021/04/10 01:33:23;;;;;;;27.65;14.15;;;;;;;3.30;46.13;96008.38;5090853;28;20329;-71
2021/04/10 01:35:54;;;;;;;31.15;15.07;;;;;;;3.48;46.68;96016.53;5077890;28;20238;-70
2021/04/10 01:38:27;;;;;;;28.90;13.85;;;;;;;3.76;46.26;95984.50;5049975;28;20208;-70
2021/04/10 01:41:03;;;;;;;28.17;14.50;;;;;;;4.15;45.64;96015.13;5075012;28;20219;-69
2021/04/10 01:43:33;;;;;;;36.60;16.20;;;;;;;4.08;45.45;96003.91;5090438;28;20195;-69
2021/04/10 01:46:02;;;;;;;29.33;15.23;;;;;;;4.07;45.68;96004.88;5077704;28;20204;-68
2021/04/10 01:48:31;;;;;;;30.92;15.23;;;;;;;4.21;45.36;96009.19;5090826;28;20356;-69
2021/04/10 01:51:00;;;;;;;31.90;16.05;;;;;;;4.29;45.17;96001.25;5077193;28;20211;-69
2021/04/10 01:53:33;;;;;;;35.08;16.25;;;;;;;4.33;45.13;95996.50;5090493;28;20649;-68
2021/04/10 01:56:02;;;;;;;30.60;15.88;;;;;;;4.33;45.40;95991.31;5076544;28;20211;-67
2021/04/10 01:58:36;;;;;;;29.77;15.30;;;;;;;3.69;45.17;95886.94;5090350;28;20240;-68
2021/04/10 02:01:10;;;;;;;33.05;16.45;;;;;;;4.25;45.19;95987.09;5077468;28;20208;-69
2021/04/10 02:03:41;;;;;;;33.50;16.38;;;;;;;4.30;45.28;95989.91;5091358;28;20222;-70
2021/04/10 02:06:10;;;;;;;32.05;16.65;;;;;;;4.19;46.16;95993.03;5077787;28;20308;-69
2021/04/10 02:08:45;;;;;;;35.33;18.52;;;;;;;4.15;45.98;95999.56;5089977;28;20227;-70
2021/04/10 02:11:22;;;;;;;34.17;18.30;;;;;;;4.14;46.26;95997.97;5060556;28;20274;-68
2021/04/10 02:13:57;;;;;;;35.50;17.90;;;;;;;4.06;46.85;95995.50;5068909;28;20200;-70
2021/04/10 02:16:40;;;;;;;33.88;16.52;;;;;;;3.89;47.00;96005.34;5073843;28;20298;-69
2021/04/10 02:19:15;;;;;;;30.90;15.95;;;;;;;3.88;46.69;96000.34;5070276;28;20195;-72
2021/04/10 02:21:45;;;;;;;32.78;17.33;;;;;;;3.94;46.38;95992.63;5088062;28;20217;-69
2021/04/10 02:24:13;;;;;;;30.85;15.70;;;;;;;3.89;47.22;95994.16;5071279;28;20199;-69
2021/04/10 02:26:51;;;;;;;28.40;15.50;;;;;;;3.52;47.63;96002.22;5075511;28;20269;-70
2021/04/10 02:29:23;;;;;;;30.75;14.77;;;;;;;3.58;47.39;96001.47;5073312;28;20809;-67
2021/04/10 02:32:20;;;;;;;35.45;14.73;;;;;;;3.34;48.24;95996.66;5081692;28;20225;-68
2021/04/10 02:35:00;;;;;;;29.42;14.80;;;;;;;3.23;48.65;96003.09;5085785;28;20214;-69
2021/04/10 02:37:32;;;;;;;33.33;15.05;;;;;;;3.35;47.88;95990.50;5083410;28;20206;-69
2021/04/10 02:40:06;;;;;;;32.95;14.55;;;;;;;3.42;47.77;95994.75;5083475;28;20207;-69
2021/04/10 02:42:44;;;;;;;27.00;14.45;;;;;;;3.38;48.66;95995.28;5084337;28;20207;-69
2021/04/10 02:45:15;;;;;;;32.50;15.10;;;;;;;3.28;48.68;95999.97;5081589;28;20199;-69
2021/04/10 02:47:49;;;;;;;26.55;14.25;;;;;;;3.48;47.91;95999.22;5085582;28;20210;-67
2021/04/10 02:50:21;;;;;;;30.67;14.13;;;;;;;3.36;48.79;95997.28;5079995;28;20243;-68
2021/04/10 02:52:53;;;;;;;30.63;14.27;;;;;;;3.43;48.82;95996.34;5087002;28;20325;-69
2021/04/10 02:55:45;;;;;;;31.83;14.57;;;;;;;3.52;48.57;96002.22;5079667;28;20316;-67
2021/04/10 02:58:17;;;;;;;28.48;14.73;;;;;;;3.45;48.19;95991.00;5079186;28;20726;-69
2021/04/10 03:00:46;;;;;;;31.17;15.10;;;;;;;3.30;48.09;95990.25;5076838;28;20207;-67
2021/04/10 03:03:17;;;;;;;33.35;15.63;;;;;;;3.47;48.62;95999.38;5050925;28;20196;-70
2021/04/10 03:05:46;;;;;;;30.65;14.88;;;;;;;3.43;48.45;96000.75;5072167;28;20658;-70
2021/04/10 03:08:20;;;;;;;29.65;15.70;;;;;;;3.48;48.04;96003.56;5090633;28;20249;-70
2021/04/10 03:10:51;;;;;;;29.70;15.63;;;;;;;3.44;48.94;95999.75;5076611;28;20227;-70
2021/04/10 03:13:19;;;;;;;33.25;15.35;;;;;;;3.42;48.86;96002.53;5049283;28;20228;-70
2021/04/10 03:15:52;;;;;;;29.15;14.90;;;;;;;3.43;49.46;96004.13;5070867;28;20280;-71
2021/04/10 03:18:22;;;;;;;26.05;14.77;;;;;;;3.26;49.01;96002.75;5050855;28;20666;-72
2021/04/10 03:20:52;;;;;;;30.13;14.30;;;;;;;3.37;48.95;96007.47;5072301;28;20207;-70
2021/04/10 03:23:20;;;;;;;25.30;14.88;;;;;;;3.33;49.09;96013.19;5089157;28;20306;-70
2021/04/10 03:25:47;;;;;;;29.67;15.13;;;;;;;3.35;48.95;96013.81;5077964;28;20213;-68
2021/04/10 03:28:15;;;;;;;35.67;16.88;;;;;;;3.21;49.44;96017.25;5090595;28;20203;-70
2021/04/10 03:30:47;;;;;;;31.60;15.55;;;;;;;3.32;49.11;96016.78;5078340;28;20631;-68
2021/04/10 03:33:22;;;;;;;34.78;17.67;;;;;;;3.21;49.34;96025.00;5049289;28;20709;-69
2021/04/10 03:35:50;;;;;;;40.15;19.20;;;;;;;3.19;49.35;96025.19;5070903;28;20202;-69
2021/04/10 03:38:17;;;;;;;45.13;20.88;;;;;;;3.24;49.08;96024.63;5050815;28;20192;-69
2021/04/10 03:40:43;;;;;;;42.40;21.80;;;;;;;3.24;49.11;96024.63;5074822;28;20199;-69
2021/04/10 03:43:10;;;;;;;49.83;20.83;;;;;;;3.17;49.07;96028.94;5089511;28;20249;-69
2021/04/10 03:45:43;;;;;;;41.42;20.48;;;;;;;2.94;49.71;96001.38;5076772;28;20190;-69
2021/04/10 03:48:17;;;;;;;40.65;20.63;;;;;;;3.22;48.92;96016.25;5089238;28;20211;-69
2021/04/10 03:50:50;;;;;;;42.20;21.33;;;;;;;3.11;49.52;96025.28;5076177;28;20661;-70
2021/04/10 03:53:17;;;;;;;48.90;21.55;;;;;;;3.24;49.33;96025.44;5048322;28;20224;-69
2021/04/10 03:55:49;;;;;;;44.70;21.30;;;;;;;3.26;49.15;96023.47;5070520;28;20211;-68
2021/04/10 03:58:16;;;;;;;44.20;20.60;;;;;;;3.10;49.44;96027.06;5048565;28;20215;-69
2021/04/10 04:00:45;;;;;;;53.08;22.50;;;;;;;3.02;49.23;96032.38;5064167;28;20207;-68
2021/04/10 04:03:12;;;;;;;55.95;23.25;;;;;;;3.08;49.09;96018.69;5092321;28;20665;-70
2021/04/10 04:05:38;;;;;;;51.17;22.15;;;;;;;3.18;49.13;96035.72;5084627;28;20199;-69
2021/04/10 04:08:05;;;;;;;55.67;22.75;;;;;;;3.12;48.76;96036.47;5098463;28;20712;-69
2021/04/10 04:10:31;;;;;;;46.60;21.88;;;;;;;3.08;49.21;96029.03;5099323;28;20227;-69
2021/04/10 04:12:58;;;;;;;51.75;22.02;;;;;;;3.17;49.07;96040.13;5077357;28;20216;-69
2021/04/10 04:15:25;;;;;;;53.20;24.30;;;;;;;3.12;49.17;96039.84;5080745;28;20277;-69
2021/04/10 04:17:51;;;;;;;45.72;22.55;;;;;;;3.05;49.13;96032.00;5096143;28;20304;-69
2021/04/10 04:20:18;;;;;;;48.85;23.70;;;;;;;3.16;49.08;96035.91;5086250;28;20200;-69
2021/04/10 04:22:44;;;;;;;47.45;21.58;;;;;;;3.10;48.59;96040.03;5073251;28;20200;-68
2021/04/10 04:25:11;;;;;;;41.67;21.38;;;;;;;3.08;48.75;96025.66;5090151;28;20191;-69
2021/04/10 04:27:37;;;;;;;41.85;22.33;;;;;;;3.08;48.85;96016.09;5084179;28;20666;-69
2021/04/10 04:30:05;;;;;;;47.72;23.02;;;;;;;3.22;48.48;96036.97;5073322;28;20201;-69
2021/04/10 04:32:31;;;;;;;50.22;23.13;;;;;;;3.42;48.56;96030.22;5079794;28;20215;-68
2021/04/10 04:34:59;;;;;;;46.72;23.25;;;;;;;3.40;49.04;96024.41;5093486;28;20255;-70
2021/04/10 04:37:25;;;;;;;48.95;23.90;;;;;;;3.46;49.87;96034.84;5093525;28;20945;-69
2021/04/10 04:39:52;;;;;;;57.13;25.88;;;;;;;3.29;49.21;96036.06;5091978;28;20203;-69
2021/04/10 04:42:18;;;;;;;52.58;25.60;;;;;;;3.47;49.29;96040.81;5085838;28;20662;-69
2021/04/10 04:44:45;;;;;;;57.78;26.98;;;;;;;3.48;48.90;96037.25;5066520;28;20201;-69
2021/04/10 04:47:11;;;;;;;70.70;29.00;;;;;;;3.56;49.12;96030.16;5071806;28;20204;-68
2021/04/10 04:49:38;;;;;;;60.75;29.10;;;;;;;3.57;48.46;96041.34;5066627;28;20269;-69
2021/04/10 04:52:05;;;;;;;67.18;31.40;;;;;;;3.58;48.84;96027.38;5072818;28;20227;-69
2021/04/10 04:54:32;;;;;;;64.95;30.60;;;;;;;3.74;48.54;96037.53;5072726;28;20219;-68
2021/04/10 04:56:58;;;;;;;80.65;33.88;;;;;;;3.63;48.47;96010.28;5072297;28;20233;-70
2021/04/10 04:59:24;;;;;;;74.82;34.08;;;;;;;3.74;48.97;96045.31;5073434;28;20200;-68
2021/04/10 05:01:51;;;;;;;71.32;33.35;;;;;;;3.77;48.94;96037.97;5072556;28;20194;-69
2021/04/10 05:04:17;;;;;;;63.20;27.58;;;;;;;3.77;48.04;96022.41;5072218;28;20207;-69
2021/04/10 05:06:44;;;;;;;64.22;28.45;;;;;;;3.81;47.46;96013.25;5072729;28;20213;-71
2021/04/10 05:09:10;;;;;;;56.92;26.13;;;;;;;4.03;47.67;96042.56;5071468;28;20304;-69
2021/04/10 05:11:36;;;;;;;49.80;23.95;;;;;;;4.06;47.32;96042.19;5070798;28;20190;-68
2021/04/10 05:14:04;;;;;;;48.67;21.40;;;;;;;4.25;46.65;96041.56;5071288;28;20227;-69
2021/04/10 05:16:30;;;;;;;38.28;20.20;;;;;;;4.33;46.00;96033.63;5072253;28;20184;-69
2021/04/10 05:18:57;;;;;;;40.80;19.13;;;;;;;4.27;46.78;96044.75;5072194;28;20673;-69
2021/04/10 05:21:24;;;;;;;29.20;14.27;;;;;;;4.49;45.54;96046.31;5071952;28;20198;-69
2021/04/10 05:23:51;;;;;;;25.48;12.30;;;;;;;4.61;45.69;96031.00;5072575;28;20278;-70
2021/04/10 05:26:17;;;;;;;32.65;13.27;;;;;;;4.83;45.30;96046.34;5070580;28;20195;-70
2021/04/10 05:28:44;;;;;;;28.42;11.50;;;;;;;4.78;46.15;96033.09;5071887;28;20191;-69
2021/04/10 05:31:10;;;;;;;19.90;9.88;;;;;;;4.94;45.63;96045.00;5071847;28;20250;-69
2021/04/10 05:33:38;;;;;;;22.42;9.27;;;;;;;5.05;45.64;96039.25;5071937;28;20212;-69
2021/04/10 05:36:04;;;;;;;22.52;11.57;;;;;;;5.14;45.39;96038.91;5072240;28;20297;-68
2021/04/10 05:38:31;;;;;;;26.60;13.35;;;;;;;5.17;45.31;96037.69;5071994;28;20204;-70
2021/04/10 05:40:57;;;;;;;31.02;13.50;;;;;;;5.33;45.67;96045.16;5071223;28;20678;-69
2021/04/10 05:43:24;;;;;;;26.33;12.32;;;;;;;5.12;46.13;96025.31;5071707;28;20203;-71
2021/04/10 05:45:50;;;;;;;21.42;12.52;;;;;;;5.40;45.72;96050.38;5071747;28;21060;-69
2021/04/10 05:48:16;;;;;;;27.10;14.15;;;;;;;5.45;45.86;96053.19;5071585;28;20196;-69
2021/04/10 05:50:43;;;;;;;23.60;13.73;;;;;;;5.59;44.97;96053.03;5071172;28;20192;-68
2021/04/10 05:53:09;;;;;;;32.10;16.90;;;;;;;5.59;45.30;96050.44;5071336;28;20200;-69
2021/04/10 05:55:36;;;;;;;34.10;17.48;;;;;;;5.61;45.92;96045.03;5071313;28;20285;-69
2021/04/10 05:58:02;;;;;;;30.15;16.83;;;;;;;5.58;46.66;96040.22;5071801;28;20279;-69
2021/04/10 06:00:28;;;;;;;31.75;16.13;;;;;;;5.74;45.31;96040.66;5070811;28;20192;-69
2021/04/10 06:02:56;;;;;;;39.10;16.23;;;;;;;5.85;45.10;96047.13;5071348;28;20239;-69
2021/04/10 06:05:23;;;;;;;32.20;17.40;;;;;;;5.99;45.04;96048.72;5071246;28;20569;-68
2021/04/10 06:07:50;;;;;;;30.65;17.55;;;;;;;5.82;45.44;96039.69;5071817;28;20202;-70
2021/04/10 06:10:20;;;;;;;33.88;17.40;;;;;;;5.99;45.18;96038.31;5070584;28;20728;-71
2021/04/10 06:12:47;;;;;;;31.35;17.08;;;;;;;5.99;46.21;96033.13;5071767;28;20576;-69
2021/04/10 06:15:17;;;;;;;34.25;17.08;;;;;;;6.06;46.93;96029.53;5071402;28;20287;-69
2021/04/10 06:17:45;;;;;;;37.28;16.90;;;;;;;6.21;46.78;96033.72;5071038;28;20194;-69
2021/04/10 06:20:13;;;;;;;32.53;16.95;;;;;;;6.14;47.24;96031.13;5063522;28;21105;-68
2021/04/10 06:22:40;;;;;;;35.53;17.83;;;;;;;6.30;46.87;96030.72;5059268;28;20218;-69
2021/04/10 06:25:07;;;;;;;31.40;17.30;;;;;;;6.38;44.87;96033.13;5059911;28;21032;-69
2021/04/10 06:27:35;;;;;;;33.17;17.38;;;;;;;6.67;44.86;96032.69;5059191;28;20204;-69
2021/04/10 06:30:03;;;;;;;29.90;16.38;;;;;;;6.57;44.07;96037.50;5064637;28;20227;-68
2021/04/10 06:32:29;;;;;;;28.73;14.65;;;;;;;6.67;44.40;96032.69;5064264;28;20231;-68
2021/04/10 06:34:56;;;;;;;22.27;13.95;;;;;;;6.74;43.89;96030.88;5059279;28;20271;-69
2021/04/10 06:37:22;;;;;;;20.92;11.30;;;;;;;6.92;42.23;96044.06;5060015;28;20188;-69
2021/04/10 06:39:49;;;;;;;19.83;12.32;;;;;;;6.87;42.91;96033.47;5058119;28;20185;-68
2021/04/10 06:42:15;;;;;;;26.20;13.10;;;;;;;6.74;42.93;96038.69;5059257;28;20190;-68
2021/04/10 06:44:42;;;;;;;20.33;13.02;;;;;;;7.13;43.42;96046.38;5059785;28;20589;-69
2021/04/10 06:47:10;;;;;;;19.88;12.95;;;;;;;7.25;41.72;96041.34;5057885;28;20511;-70
2021/04/10 06:49:37;;;;;;;21.90;12.23;;;;;;;7.43;39.49;96040.66;5061116;28;20202;-69
2021/04/10 06:52:06;;;;;;;26.13;12.02;;;;;;;7.52;40.93;96031.63;5069982;28;20188;-70
2021/04/10 06:54:34;;;;;;;20.67;11.38;;;;;;;7.50;40.27;96028.41;5070567;28;20245;-69
2021/04/10 06:57:08;;;;;;;19.23;11.88;;;;;;;7.35;39.89;96025.28;5069953;28;20300;-75
2021/04/10 06:59:53;;;;;;;93.25;56.22;;;;;;;7.38;39.13;96035.28;5070638;28;20191;-76
2021/04/10 07:02:21;;;;;;;58.50;36.70;;;;;;;7.56;39.06;96017.13;5070633;28;20199;-72
2021/04/10 07:04:49;;;;;;;23.98;13.32;;;;;;;7.74;38.41;96030.25;5072026;28;20187;-68
2021/04/10 07:07:15;;;;;;;20.33;13.43;;;;;;;7.87;38.47;96027.56;5071396;28;20202;-72
2021/04/10 07:09:42;;;;;;;22.02;12.43;;;;;;;7.92;38.58;96017.28;5070450;28;20236;-72
2021/04/10 07:12:09;;;;;;;23.08;14.13;;;;;;;8.00;39.53;96019.66;5065860;28;20287;-73
2021/04/10 07:14:36;;;;;;;27.25;15.57;;;;;;;8.03;38.75;96014.00;5070079;28;20198;-71
2021/04/10 07:17:03;;;;;;;30.45;15.88;;;;;;;7.93;39.86;96024.13;5069594;28;20190;-74
2021/04/10 07:19:29;;;;;;;32.00;16.33;;;;;;;8.21;39.79;96025.31;5070137;28;20217;-70
2021/04/10 07:22:08;;;;;;;24.23;14.25;;;;;;;8.42;38.11;96023.38;5069242;28;20180;-70
2021/04/10 07:24:54;;;;;;;25.95;13.98;;;;;;;8.48;37.22;96023.34;5069082;28;20192;-71
2021/04/10 07:27:23;;;;;;;51.83;33.30;;;;;;;8.66;38.66;96018.13;5069343;28;20194;-72
2021/04/10 07:29:58;;;;;;;65.60;44.83;;;;;;;8.53;35.63;96026.09;5069472;28;20978;-71
2021/04/10 07:32:38;;;;;;;24.58;14.40;;;;;;;8.70;36.74;96015.91;5069538;28;20264;-70
2021/04/10 07:35:07;;;;;;;20.43;11.83;;;;;;;8.85;36.04;96014.50;5068849;28;20658;-68
2021/04/10 07:37:42;;;;;;;21.57;11.53;;;;;;;9.01;35.61;96019.16;5068953;28;20491;-74
2021/04/10 07:40:23;;;;;;;38.85;24.63;;;;;;;8.97;35.95;96020.63;5069073;28;20459;-70
2021/04/10 07:42:51;;;;;;;35.20;23.47;;;;;;;9.17;37.19;96026.44;5069218;28;20183;-69
2021/04/10 07:45:32;;;;;;;15.80;9.90;;;;;;;9.06;35.44;96013.28;5069103;28;20448;-70
2021/04/10 07:48:14;;;;;;;16.20;9.60;;;;;;;8.69;34.47;96015.09;5069941;28;20459;-69
2021/04/10 07:50:41;;;;;;;17.87;9.53;;;;;;;8.73;35.84;96024.09;5069105;28;20601;-70
2021/04/10 07:53:22;;;;;;;12.20;7.87;;;;;;;9.05;34.89;96019.56;5069599;28;20567;-71
2021/04/10 07:55:50;;;;;;;14.33;8.13;;;;;;;9.07;35.25;96015.69;5068878;28;20919;-71
2021/04/10 07:58:35;;;;;;;14.75;7.40;;;;;;;9.33;34.56;96011.97;5069502;28;20806;-68
2021/04/10 08:01:07;;;;;;;15.30;8.70;;;;;;;9.13;35.01;96012.22;5069213;28;20639;-70
2021/04/10 08:03:35;;;;;;;11.73;7.47;;;;;;;9.56;33.83;96006.81;5069240;28;20514;-69
2021/04/10 08:06:04;;;;;;;12.87;6.87;;;;;;;9.56;33.11;95995.56;5068879;28;20724;-70
2021/04/10 08:08:43;;;;;;;10.80;6.70;;;;;;;9.73;33.91;96005.19;5069222;28;20495;-69
2021/04/10 08:11:11;;;;;;;12.30;6.37;;;;;;;9.95;32.27;96005.47;5068602;28;20828;-69
2021/04/10 08:13:37;;;;;;;11.40;6.13;;;;;;;9.98;33.25;96000.59;5069873;28;20473;-70
2021/04/10 08:16:20;;;;;;;11.40;6.40;;;;;;;10.04;33.08;95998.88;5068717;28;20438;-70
2021/04/10 08:18:48;;;;;;;12.40;6.80;;;;;;;10.18;31.97;95998.50;5069417;28;20460;-70
2021/04/10 08:21:17;;;;;;;8.70;5.93;;;;;;;10.38;34.19;95995.56;5069150;28;20434;-67
2021/04/10 08:23:45;;;;;;;11.57;6.43;;;;;;;10.52;32.98;95991.69;5069352;28;20442;-71
2021/04/10 08:26:13;;;;;;;140.77;92.23;;;;;;;10.79;33.65;95987.56;5068487;28;20980;-73
2021/04/10 08:28:40;;;;;;;114.80;85.97;;;;;;;11.03;31.64;95989.16;5069197;28;20511;-72
2021/04/10 08:31:08;;;;;;;8.77;6.70;;;;;;;10.84;31.89;95982.44;5069005;28;20480;-70
2021/04/10 08:33:36;;;;;;;8.57;5.00;;;;;;;10.79;30.76;95974.47;5069141;28;20485;-70
2021/04/10 08:36:07;;;;;;;9.73;5.20;;;;;;;10.88;32.21;95975.72;5068484;28;20477;-70
2021/04/10 08:38:34;;;;;;;10.60;4.70;;;;;;;11.09;29.93;95969.84;5057295;28;21315;-70
2021/04/10 08:41:04;;;;;;;11.07;5.30;;;;;;;11.03;30.68;95962.09;5058216;28;20434;-68
2021/04/10 08:43:34;;;;;;;10.07;5.57;;;;;;;11.13;31.03;95963.09;5055160;28;20439;-68
2021/04/10 08:46:04;;;;;;;11.20;6.00;;;;;;;11.35;31.14;95949.34;5048588;28;20442;-69
2021/04/10 08:48:32;;;;;;;9.80;5.27;;;;;;;11.15;28.84;95965.50;5056757;28;20443;-68
2021/04/10 08:51:03;;;;;;;10.77;5.47;;;;;;;11.20;30.08;95963.75;5060647;28;20442;-68
2021/04/10 08:53:36;;;;;;;14.47;6.77;;;;;;;11.43;30.53;95957.66;5061194;28;20481;-69
2021/04/10 08:56:08;;;;;;;13.10;5.83;;;;;;;11.51;31.43;95959.09;5061502;28;20524;-73
2021/04/10 08:58:37;;;;;;;8.63;5.60;;;;;;;11.55;30.20;95947.09;5061761;28;20434;-70
2021/04/10 09:01:10;;;;;;;7.90;5.80;;;;;;;11.80;30.03;95943.13;5061564;28;20893;-68
2021/04/10 09:03:45;;;;;;;10.63;5.33;;;;;;;12.01;30.46;95945.03;5062420;28;20434;-69
2021/04/10 09:06:12;;;;;;;13.50;5.00;;;;;;;12.23;29.46;95948.56;5061119;28;20496;-70
2021/04/10 09:08:39;;;;;;;8.13;5.33;;;;;;;12.28;27.46;95939.16;5059889;28;20553;-70
2021/04/10 09:11:08;;;;;;;8.77;4.80;;;;;;;11.94;27.68;95927.84;5060913;28;20440;-71
2021/04/10 09:13:44;;;;;;;8.90;4.97;;;;;;;12.12;28.88;95935.47;5054988;28;20513;-68
2021/04/10 09:16:19;;;;;;;9.57;5.03;;;;;;;12.16;27.88;95928.72;5060012;28;20440;-69
2021/04/10 09:19:04;;;;;;;6.43;4.47;;;;;;;12.51;29.43;95918.72;5061996;28;20521;-69
2021/04/10 09:21:53;;;;;;;12.27;6.07;;;;;;;12.69;29.04;95918.44;5061390;28;20478;-68
2021/04/10 09:24:28;;;;;;;13.93;5.50;;;;;;;13.06;28.39;95906.28;5061549;28;20513;-68
2021/04/10 09:26:56;;;;;;;10.97;5.23;;;;;;;12.98;27.71;95898.81;5061094;28;20890;-68
2021/04/10 09:29:24;;;;;;;15.53;5.50;;;;;;;13.26;28.99;95894.41;5060226;28;20435;-69
2021/04/10 09:31:58;;;;;;;10.50;6.07;;;;;;;13.67;27.86;95893.75;5059550;28;21014;-70
2021/04/10 09:34:48;;;;;;;9.23;5.30;;;;;;;14.06;27.11;95885.41;5060981;28;20657;-67
2021/04/10 09:37:20;;;;;;;11.67;5.13;;;;;;;14.05;26.38;95898.84;5061138;28;20435;-71
2021/04/10 09:40:03;;;;;;;7.23;4.77;;;;;;;14.27;26.06;95886.34;5060512;28;20444;-67
2021/04/10 09:45:13;;;;;;;9.37;6.30;;;;;;;14.17;25.08;95876.53;5061921;28;20438;-68
2021/04/10 09:47:52;;;;;;;12.30;5.53;;;;;;;13.99;24.23;95873.50;5071911;28;20446;-73
2021/04/10 09:50:19;;;;;;;9.20;4.87;;;;;;;13.79;26.09;95875.97;5060303;28;20449;-68
2021/04/10 09:52:56;;;;;;;9.43;5.00;;;;;;;14.64;25.96;95876.56;5060668;28;20577;-68
2021/04/10 09:55:24;;;;;;;11.30;4.93;;;;;;;14.83;24.87;95859.25;5058336;28;20442;-68
2021/04/10 09:57:54;;;;;;;10.83;5.00;;;;;;;15.11;24.56;95853.50;5050866;28;20829;-67
2021/04/10 10:00:27;;;;;;;7.17;4.90;;;;;;;15.33;25.22;95855.16;5055535;28;20466;-70
2021/04/10 10:02:54;;;;;;;9.53;5.63;;;;;;;15.62;24.69;95848.38;5060936;28;20438;-70
2021/04/10 10:05:29;;;;;;;80.43;54.37;;;;;;;15.94;24.90;95849.69;5060698;28;20432;-71
2021/04/10 10:08:06;;;;;;;22.60;16.20;;;;;;;16.18;27.16;95834.06;5060760;28;20529;-68
2021/04/10 10:10:35;;;;;;;10.10;6.67;;;;;;;16.38;23.56;95849.91;5060184;28;20469;-69
2021/04/10 10:13:07;;;;;;;11.97;6.13;;;;;;;16.14;21.43;95843.59;5053298;28;20474;-68
2021/04/10 10:15:35;;;;;;;21.10;17.60;;;;;;;15.97;21.58;95821.91;5060382;28;20558;-67
2021/04/10 10:18:44;;;;;;;13.33;10.87;;;;;;;15.92;23.04;95832.50;5053691;28;20972;-69
2021/04/10 10:21:13;;;;;;;33.77;12.90;;;;;;;16.37;23.65;95832.41;5046989;28;20455;-69
2021/04/10 10:23:49;;;;;;;22.03;12.50;;;;;;;16.41;22.65;95822.09;5050997;28;20443;-68
2021/04/10 10:26:17;;;;;;;13.50;6.67;;;;;;;16.71;22.81;95825.47;5050665;28;20458;-69
2021/04/10 10:29:06;;;;;;;9.63;5.90;;;;;;;16.95;22.51;95821.13;5051375;28;20435;-71
2021/04/10 10:31:40;;;;;;;11.03;6.03;;;;;;;16.77;20.79;95810.38;5050474;28;20454;-70
2021/04/10 10:34:09;;;;;;;9.67;5.80;;;;;;;16.87;22.81;95805.81;5051215;28;20462;-69
2021/04/10 10:36:39;;;;;;;10.97;7.10;;;;;;;17.25;29.79;95806.94;5050421;28;20447;-71
2021/04/10 10:39:24;;;;;;;16.23;6.80;;;;;;;17.58;22.71;95802.75;5051068;28;20518;-75
2021/04/10 10:41:50;;;;;;;11.53;6.37;;;;;;;17.28;21.55;95784.41;5050392;28;20855;-70
2021/04/10 10:44:20;;;;;;;12.60;6.20;;;;;;;17.62;21.95;95787.88;5050770;28;20538;-69
2021/04/10 10:47:00;;;;;;;11.57;6.40;;;;;;;17.60;22.26;95782.06;5050309;28;20434;-73
2021/04/10 10:49:27;;;;;;;66.50;48.27;;;;;;;17.68;23.94;95784.13;5050803;28;20474;-71
2021/04/10 10:51:54;;;;;;;89.17;63.90;;;;;;;17.74;22.20;95781.16;5048987;28;20968;-69
2021/04/10 10:54:34;;;;;;;10.77;6.47;;;;;;;17.81;22.25;95773.66;5050557;28;20478;-69
2021/04/10 10:57:07;;;;;;;9.87;5.20;;;;;;;17.37;20.70;95777.44;5050089;28;20821;-69
2021/04/10 10:59:55;;;;;;;15.83;6.37;;;;;;;16.47;20.21;95753.06;5050338;28;20439;-70
2021/04/10 11:02:21;;;;;;;12.53;5.67;;;;;;;17.09;21.48;95765.72;5050347;28;21176;-70
2021/04/10 11:04:49;;;;;;;11.83;6.50;;;;;;;17.29;21.26;95760.28;5050335;28;20451;-70
2021/04/10 11:07:23;;;;;;;9.33;5.90;;;;;;;17.54;20.34;95767.25;5050488;28;20443;-66
2021/04/10 11:09:50;;;;;;;12.47;5.83;;;;;;;17.97;21.81;95751.22;5050306;28;20466;-67
2021/04/10 11:12:17;;;;;;;12.30;6.43;;;;;;;18.50;21.12;95749.38;5057719;28;20423;-68
2021/04/10 11:14:46;;;;;;;10.33;6.03;;;;;;;19.03;20.77;95748.13;5059364;28;20581;-69
2021/04/10 11:17:29;;;;;;;10.70;6.13;;;;;;;19.56;20.49;95742.59;5070197;28;20875;-66
2021/04/10 11:19:58;;;;;;;13.67;6.20;;;;;;;19.91;19.58;95736.63;5069781;28;20473;-68
2021/04/10 11:22:26;;;;;;;12.63;5.93;;;;;;;19.88;19.94;95742.56;5069916;28;20836;-67
2021/04/10 11:24:52;;;;;;;9.77;5.93;;;;;;;20.16;18.90;95733.53;5068504;28;20436;-69
2021/04/10 11:27:24;;;;;;;11.67;6.40;;;;;;;20.46;19.13;95730.31;5070365;28;20556;-69
2021/04/10 11:29:53;;;;;;;11.30;6.20;;;;;;;20.89;19.23;95718.19;5069571;28;20527;-68
2021/04/10 11:32:44;;;;;;;10.97;5.40;;;;;;;20.90;19.09;95711.78;5068956;28;20442;-68
2021/04/10 11:35:14;;;;;;;7.23;5.10;;;;;;;20.52;19.00;95715.81;5066656;28;20441;-68
2021/04/10 11:37:46;;;;;;;9.13;4.97;;;;;;;20.56;19.15;95716.81;5066737;28;20456;-69
2021/04/10 11:40:28;;;;;;;11.87;5.33;;;;;;;19.54;17.77;95704.88;5066525;28;21261;-71
2021/04/10 11:43:00;;;;;;;11.73;5.30;;;;;;;19.47;18.30;95717.75;5067217;28;20430;-71
2021/04/10 11:45:37;;;;;;;7.40;4.67;;;;;;;19.81;20.18;95702.25;5067961;28;20769;-69